createdAt,value
2022-09-20T00:02:51.430Z,98.30
2022-09-20T00:05:52.932Z,98.20
2022-09-20T00:08:55.120Z,98.20
2022-09-20T00:11:56.789Z,98.20
2022-09-20T00:14:58.443Z,98.20
2022-09-20T00:18:00.816Z,98.00
2022-09-20T00:21:03.304Z,98.20
2022-09-20T00:24:05.885Z,98.10
2022-09-20T00:27:07.452Z,98.40
2022-09-20T00:30:10.030Z,98.20
2022-09-20T00:33:11.592Z,98.20
2022-09-20T00:36:13.519Z,98.60
2022-09-20T00:39:16.468Z,98.60
2022-09-20T00:42:18.028Z,98.70
2022-09-20T00:45:27.672Z,98.70
2022-09-20T00:48:31.944Z,98.80
2022-09-20T00:51:37.553Z,98.80
2022-09-20T00:54:39.153Z,98.90
2022-09-20T00:57:42.497Z,98.70
2022-09-20T01:00:45.630Z,98.90
2022-09-20T01:03:48.843Z,99.00
2022-09-20T01:06:53.934Z,99.40
2022-09-20T01:09:55.710Z,98.90
2022-09-20T01:12:57.376Z,99.00
2022-09-20T01:16:01.124Z,98.90
2022-09-20T01:19:15.011Z,99.00
2022-09-20T01:22:25.228Z,99.10
2022-09-20T01:25:57.876Z,99.20
2022-09-20T01:29:15.383Z,98.40
2022-09-20T01:32:22.453Z,99.10
2022-09-20T01:35:28.651Z,98.90
2022-09-20T01:38:51.896Z,98.90
2022-09-20T01:42:09.658Z,98.40
2022-09-20T01:45:25.757Z,98.30
2022-09-20T01:48:41.444Z,99.00
2022-09-20T01:52:17.171Z,99.10
2022-09-20T01:55:37.228Z,98.50
2022-09-20T01:59:24.507Z,98.30
2022-09-20T02:02:59.559Z,98.40
2022-09-20T02:06:39.163Z,98.60
2022-09-20T02:10:10.832Z,98.40
2022-09-20T02:13:32.413Z,98.40
2022-09-20T02:17:10.449Z,99.60
2022-09-20T02:20:15.887Z,98.50
2022-09-20T02:23:40.547Z,99.00
2022-09-20T02:27:26.048Z,98.50
2022-09-20T02:30:42.692Z,98.50
2022-09-20T02:34:20.205Z,98.50
2022-09-20T02:37:36.155Z,98.50
2022-09-20T02:41:05.920Z,99.20
2022-09-20T02:44:22.030Z,98.50
2022-09-20T02:47:39.629Z,98.60
2022-09-20T02:51:03.956Z,98.50
2022-09-20T02:54:22.600Z,98.60
2022-09-20T02:57:36.412Z,99.40
2022-09-20T03:00:53.612Z,98.60
2022-09-20T03:04:26.058Z,99.20
2022-09-20T03:08:16.103Z,98.60
2022-09-20T03:11:35.493Z,98.60
2022-09-20T03:14:57.345Z,98.60
2022-09-20T03:18:06.288Z,98.40
2022-09-20T03:21:40.211Z,99.40
2022-09-20T03:24:59.928Z,98.70
2022-09-20T03:28:19.781Z,98.50
2022-09-20T03:31:36.564Z,98.40
2022-09-20T03:35:08.036Z,98.60
2022-09-20T03:38:34.215Z,98.70
2022-09-20T03:42:11.942Z,98.70
2022-09-20T03:45:41.051Z,98.70
2022-09-20T03:49:27.415Z,99.20
2022-09-20T03:52:44.605Z,98.60
2022-09-20T03:56:06.421Z,98.60
2022-09-20T04:00:01.668Z,98.50
2022-09-20T04:03:19.790Z,98.70
2022-09-20T04:06:51.971Z,98.40
2022-09-20T04:10:15.893Z,98.50
2022-09-20T04:13:39.506Z,98.50
2022-09-20T04:16:49.510Z,99.30
2022-09-20T04:20:07.984Z,99.60
2022-09-20T04:23:32.787Z,98.00
2022-09-20T04:26:40.753Z,99.90
2022-09-20T04:30:05.998Z,99.90
2022-09-20T04:33:29.813Z,98.70
2022-09-20T04:36:59.285Z,99.40
2022-09-20T04:40:34.071Z,99.20
2022-09-20T04:43:51.210Z,98.70
2022-09-20T04:47:31.992Z,98.60
2022-09-20T04:51:00.609Z,98.30
2022-09-20T04:54:41.966Z,98.60
2022-09-20T04:58:05.104Z,99.60
2022-09-20T05:01:17.206Z,98.60
2022-09-20T05:05:10.051Z,99.90
2022-09-20T05:08:30.383Z,98.70
2022-09-20T05:12:01.081Z,98.50
2022-09-20T05:15:21.024Z,98.70
2022-09-20T05:18:25.394Z,99.10
2022-09-20T05:21:56.232Z,98.60
2022-09-20T05:25:00.702Z,98.70
2022-09-20T05:28:13.364Z,98.50
2022-09-20T05:31:49.509Z,98.80
2022-09-20T05:35:03.392Z,98.80
2022-09-20T05:38:40.790Z,98.80
2022-09-20T05:41:56.711Z,98.90
2022-09-20T05:45:32.177Z,99.70
2022-09-20T05:48:56.065Z,99.00
2022-09-20T05:52:29.136Z,99.10
2022-09-20T05:56:13.138Z,99.10
2022-09-20T05:59:20.615Z,99.00
2022-09-20T06:02:51.544Z,99.90
2022-09-20T06:06:04.442Z,99.20
2022-09-20T06:09:08.763Z,98.60
2022-09-20T06:12:35.619Z,99.40
2022-09-20T06:16:04.472Z,98.90
2022-09-20T06:19:40.303Z,99.00
2022-09-20T06:22:50.826Z,98.80
2022-09-20T06:26:14.809Z,99.40
2022-09-20T06:29:33.049Z,98.60
2022-09-20T06:32:34.690Z,98.60
2022-09-20T06:35:49.264Z,99.20
2022-09-20T06:39:21.743Z,98.70
2022-09-20T06:42:27.031Z,98.60
2022-09-20T06:45:28.953Z,99.20
2022-09-20T06:48:31.933Z,99.10
2022-09-20T06:51:39.999Z,99.10
2022-09-20T06:54:46.089Z,99.20
2022-09-20T06:57:47.766Z,98.90
2022-09-20T07:00:49.409Z,98.90
2022-09-20T07:03:51.000Z,98.80
2022-09-20T07:06:59.504Z,98.80
2022-09-20T07:10:01.171Z,99.20
2022-09-20T07:13:03.025Z,98.50
2022-09-20T07:16:07.113Z,98.50
2022-09-20T07:19:08.702Z,98.70
2022-09-20T07:22:11.077Z,98.60
2022-09-20T07:25:12.679Z,98.70
2022-09-20T07:28:14.230Z,98.60
2022-09-20T07:31:17.845Z,98.40
2022-09-20T07:34:20.172Z,98.20
2022-09-20T07:37:22.329Z,98.30
2022-09-20T07:40:24.250Z,98.40
2022-09-20T07:43:26.227Z,98.40
2022-09-20T07:46:27.773Z,98.10
2022-09-20T07:49:32.505Z,98.00
2022-09-20T07:52:34.044Z,97.40
2022-09-20T07:55:35.611Z,98.00
2022-09-20T07:58:37.451Z,98.00
2022-09-20T08:01:39.212Z,98.10
2022-09-20T08:04:40.840Z,98.10
2022-09-20T08:07:42.432Z,97.90
2022-09-20T08:10:46.032Z,97.60
2022-09-20T08:14:07.057Z,97.30
2022-09-20T08:17:11.301Z,96.90
2022-09-20T08:20:12.906Z,96.70
2022-09-20T08:23:23.383Z,96.70
2022-09-20T08:26:27.250Z,96.50
2022-09-20T08:29:28.775Z,96.60
2022-09-20T08:32:30.327Z,97.00
2022-09-20T08:35:38.146Z,96.50
2022-09-20T08:42:12.747Z,96.40
2022-09-20T08:45:33.550Z,97.10
2022-09-20T08:48:36.015Z,96.60
2022-09-20T08:51:39.964Z,96.60
2022-09-20T08:54:43.406Z,96.60
2022-09-20T08:57:53.319Z,96.80
2022-09-20T09:00:59.921Z,95.80
2022-09-20T09:04:16.651Z,95.90
2022-09-20T09:07:22.296Z,96.30
2022-09-20T09:10:23.972Z,96.10
2022-09-20T09:13:34.368Z,96.00
2022-09-20T09:16:36.502Z,95.50
2022-09-20T09:19:54.483Z,96.20
2022-09-20T09:23:00.782Z,94.70
2022-09-20T09:26:05.426Z,95.30
2022-09-20T09:29:24.200Z,95.50
2022-09-20T09:32:32.669Z,94.50
2022-09-20T09:35:36.021Z,95.20
2022-09-20T09:38:40.065Z,95.10
2022-09-20T09:41:43.172Z,95.30
2022-09-20T09:44:50.105Z,95.30
2022-09-20T09:47:52.020Z,95.10
2022-09-20T09:51:08.994Z,95.00
2022-09-20T09:54:19.964Z,94.80
2022-09-20T09:57:45.585Z,95.10
2022-09-20T10:00:48.180Z,94.00
2022-09-20T10:04:05.279Z,94.90
2022-09-20T10:07:22.195Z,94.20
2022-09-20T10:10:41.367Z,94.20
2022-09-20T10:13:56.239Z,94.20
2022-09-20T10:17:06.207Z,94.50
2022-09-20T10:20:28.509Z,94.40
2022-09-20T10:24:04.895Z,95.10
2022-09-20T10:27:24.759Z,94.20
2022-09-20T10:30:37.193Z,94.30
2022-09-20T10:34:03.211Z,94.80
2022-09-20T10:37:27.455Z,95.20
2022-09-20T10:40:58.857Z,95.10
2022-09-20T10:44:06.062Z,95.30
2022-09-20T10:47:28.803Z,96.10
2022-09-20T10:50:49.033Z,95.90
2022-09-20T10:54:29.635Z,95.10
2022-09-20T10:57:44.432Z,94.60
2022-09-20T11:01:10.063Z,94.50
2022-09-20T11:04:33.595Z,93.80
2022-09-20T11:07:58.733Z,93.70
2022-09-20T11:11:12.393Z,93.60
2022-09-20T11:14:19.192Z,93.70
2022-09-20T11:17:31.784Z,94.50
2022-09-20T11:20:44.302Z,94.70
2022-09-20T11:24:06.237Z,94.30
2022-09-20T11:27:15.439Z,93.50
2022-09-20T11:30:23.257Z,93.00
2022-09-20T11:33:41.278Z,93.00
2022-09-20T11:37:01.231Z,93.50
2022-09-20T11:40:20.293Z,92.60
2022-09-20T11:43:24.026Z,93.50
2022-09-20T11:46:29.585Z,93.60
2022-09-20T11:50:02.966Z,93.20
2022-09-20T11:53:26.306Z,92.20
2022-09-20T11:56:32.468Z,92.40
2022-09-20T11:59:43.385Z,93.00
2022-09-20T12:02:48.406Z,92.20
2022-09-20T12:06:04.155Z,92.30
2022-09-20T12:09:22.868Z,91.20
2022-09-20T12:12:41.441Z,91.90
2022-09-20T12:15:43.112Z,91.40
2022-09-20T12:18:47.661Z,92.20
2022-09-20T12:22:01.124Z,92.10
2022-09-20T12:25:39.033Z,94.90
2022-09-20T12:28:42.851Z,90.50
2022-09-20T12:31:48.576Z,91.70
2022-09-20T12:34:50.247Z,91.00
2022-09-20T12:37:51.814Z,90.80
2022-09-20T12:41:11.562Z,90.10
2022-09-20T12:44:24.930Z,90.30
2022-09-20T12:47:29.384Z,90.10
2022-09-20T12:50:49.743Z,90.50
2022-09-20T12:54:06.439Z,90.00
2022-09-20T12:57:27.264Z,90.70
2022-09-20T13:00:37.986Z,90.60
2022-09-20T13:03:45.286Z,90.70
2022-09-20T13:07:07.273Z,90.50
2022-09-20T13:10:38.775Z,91.00
2022-09-20T13:13:51.586Z,90.60
2022-09-20T13:17:19.163Z,90.60
2022-09-20T13:20:29.862Z,88.60
2022-09-20T13:23:32.127Z,90.00
2022-09-20T13:26:41.435Z,90.00
2022-09-20T13:29:44.761Z,89.30
2022-09-20T13:32:47.736Z,90.60
2022-09-20T13:35:54.313Z,90.50
2022-09-20T13:38:57.909Z,89.60
2022-09-20T13:42:02.325Z,89.10
2022-09-20T13:45:04.884Z,90.10
2022-09-20T13:48:09.262Z,89.40
2022-09-20T13:51:27.898Z,89.60
2022-09-20T13:54:32.006Z,90.10
2022-09-20T13:57:34.713Z,90.60
2022-09-20T14:00:38.238Z,90.30
2022-09-20T14:03:40.010Z,90.30
2022-09-20T14:06:42.522Z,90.30
2022-09-20T14:09:45.077Z,90.20
2022-09-20T14:12:49.048Z,90.40
2022-09-20T14:15:50.707Z,89.90
2022-09-20T14:18:52.449Z,90.00
2022-09-20T14:21:54.787Z,90.30
2022-09-20T14:24:59.467Z,90.20
2022-09-20T14:28:18.925Z,90.20
2022-09-20T14:31:32.222Z,90.20
2022-09-20T14:34:38.434Z,90.20
2022-09-20T14:38:06.785Z,90.20
2022-09-20T14:41:08.436Z,88.80
2022-09-20T14:44:26.680Z,90.40
2022-09-20T14:47:36.978Z,90.30
2022-09-20T14:50:42.049Z,90.50
2022-09-20T14:53:45.503Z,90.70
2022-09-20T14:56:52.988Z,90.80
2022-09-20T14:59:57.056Z,90.60
2022-09-20T15:03:06.485Z,91.30
2022-09-20T15:06:12.361Z,90.60
2022-09-20T15:09:14.553Z,90.90
2022-09-20T15:12:19.010Z,90.70
2022-09-20T15:15:20.623Z,90.50
2022-09-20T15:18:28.685Z,90.60
2022-09-20T15:21:30.383Z,90.40
2022-09-20T15:24:31.917Z,90.40
2022-09-20T15:27:33.593Z,90.40
2022-09-20T15:30:36.076Z,90.30
2022-09-20T15:33:37.607Z,90.20
2022-09-20T15:36:40.312Z,90.30
2022-09-20T15:39:41.896Z,90.60
2022-09-20T15:42:45.801Z,90.60
2022-09-20T15:45:52.764Z,90.30
2022-09-20T15:48:55.355Z,90.20
2022-09-20T15:51:57.148Z,90.20
2022-09-20T15:55:00.223Z,90.40
2022-09-20T15:58:01.776Z,90.00
2022-09-20T16:01:08.386Z,90.20
2022-09-20T16:04:17.207Z,90.20
2022-09-20T16:07:18.835Z,88.50
2022-09-20T16:10:20.489Z,90.40
2022-09-20T16:13:23.103Z,90.70
2022-09-20T16:16:26.494Z,90.50
2022-09-20T16:19:30.359Z,90.50
2022-09-20T16:22:33.956Z,90.30
2022-09-20T16:25:36.054Z,91.30
2022-09-20T16:28:37.601Z,90.50
2022-09-20T16:31:49.995Z,90.60
2022-09-20T16:34:54.627Z,90.70
2022-09-20T16:37:57.565Z,90.80
2022-09-20T16:41:00.183Z,90.80
2022-09-20T16:44:02.034Z,90.70
2022-09-20T16:47:08.804Z,90.60
2022-09-20T16:50:11.885Z,90.00
2022-09-20T16:53:13.466Z,90.90
2022-09-20T16:56:22.888Z,90.90
2022-09-20T16:59:24.476Z,91.00
2022-09-20T17:02:26.016Z,91.20
2022-09-20T17:05:27.628Z,91.50
2022-09-20T17:08:29.231Z,91.10
2022-09-20T17:11:53.548Z,91.10
2022-09-20T17:14:55.119Z,91.10
2022-09-20T17:17:57.671Z,90.90
2022-09-20T17:21:07.074Z,91.20
2022-09-20T17:24:08.750Z,91.30
2022-09-20T17:27:10.764Z,91.90
2022-09-20T17:30:12.684Z,91.50
2022-09-20T17:33:14.390Z,91.50
2022-09-20T17:36:21.258Z,91.70
2022-09-20T17:39:23.547Z,92.00
2022-09-20T17:42:25.077Z,91.80
2022-09-20T17:45:26.621Z,91.90
2022-09-20T17:48:28.189Z,91.90
2022-09-20T17:51:38.362Z,92.40
2022-09-20T17:54:40.043Z,91.50
2022-09-20T17:57:41.656Z,92.20
2022-09-20T18:00:43.223Z,92.60
2022-09-20T18:03:46.414Z,92.40
2022-09-20T18:06:50.577Z,92.60
2022-09-20T18:09:52.098Z,92.40
2022-09-20T18:12:53.646Z,92.40
2022-09-20T18:15:55.204Z,92.40
2022-09-20T18:18:59.109Z,92.80
2022-09-20T18:22:04.205Z,92.40
2022-09-20T18:25:06.139Z,92.80
2022-09-20T18:28:07.667Z,92.40
2022-09-20T18:31:10.064Z,92.70
2022-09-20T18:34:17.918Z,92.80
2022-09-20T18:37:19.646Z,93.00
2022-09-20T18:40:22.910Z,92.80
2022-09-20T18:43:24.472Z,93.10
2022-09-20T18:46:29.226Z,93.10
2022-09-20T18:49:31.685Z,93.10
2022-09-20T18:52:38.556Z,93.30
2022-09-20T18:55:41.035Z,93.50
2022-09-20T18:58:44.584Z,93.30
2022-09-20T19:01:55.280Z,93.40
2022-09-20T19:05:12.890Z,92.70
2022-09-20T19:08:44.761Z,93.70
2022-09-20T19:11:51.677Z,93.70
2022-09-20T19:15:15.509Z,93.60
2022-09-20T19:18:51.708Z,92.90
2022-09-20T19:21:59.101Z,93.00
2022-09-20T19:25:25.607Z,93.90
2022-09-20T19:28:27.457Z,93.10
2022-09-20T19:31:31.703Z,93.60
2022-09-20T19:34:33.536Z,93.70
2022-09-20T19:38:01.206Z,94.00
2022-09-20T19:41:32.015Z,93.30
2022-09-20T19:44:33.684Z,93.50
2022-09-20T19:47:44.950Z,93.90
2022-09-20T19:50:52.409Z,93.40
2022-09-20T19:53:55.325Z,94.00
2022-09-20T19:56:59.274Z,94.20
2022-09-20T20:00:01.149Z,94.20
2022-09-20T20:03:02.929Z,94.00
2022-09-20T20:06:14.017Z,94.00
2022-09-20T20:09:44.016Z,93.40
2022-09-20T20:13:24.779Z,93.80
2022-09-20T20:17:04.980Z,94.40
2022-09-20T20:20:22.394Z,93.80
2022-09-20T20:23:54.430Z,93.50
2022-09-20T20:26:55.962Z,93.90
2022-09-20T20:29:58.046Z,94.50
2022-09-20T20:32:59.562Z,94.60
2022-09-20T20:36:02.138Z,94.70
2022-09-20T20:39:03.788Z,94.80
2022-09-20T20:42:06.280Z,94.70
2022-09-20T20:45:08.646Z,94.80
2022-09-20T20:48:10.376Z,94.50
2022-09-20T20:51:14.640Z,94.80
2022-09-20T20:54:16.254Z,95.00
2022-09-20T20:57:19.014Z,95.10
2022-09-20T21:00:20.588Z,95.20
2022-09-20T21:03:22.132Z,95.10
2022-09-20T21:06:27.386Z,95.30
2022-09-20T21:09:28.935Z,95.40
2022-09-20T21:12:30.482Z,95.30
2022-09-20T21:15:32.224Z,95.40
2022-09-20T21:18:34.861Z,95.70
2022-09-20T21:21:44.381Z,95.30
2022-09-20T21:24:46.968Z,95.50
2022-09-20T21:27:49.436Z,95.80
2022-09-20T21:30:56.944Z,95.50
2022-09-20T21:34:00.515Z,95.70
2022-09-20T21:37:02.625Z,95.50
2022-09-20T21:40:04.536Z,95.50
2022-09-20T21:43:06.110Z,95.40
2022-09-20T21:46:12.366Z,95.60
2022-09-20T21:49:14.399Z,95.80
2022-09-20T21:52:15.952Z,95.70
2022-09-20T21:55:17.505Z,95.50
2022-09-20T21:58:19.055Z,95.80
2022-09-20T22:01:26.585Z,95.60
2022-09-20T22:04:29.064Z,95.90
2022-09-20T22:07:30.643Z,95.70
2022-09-20T22:10:32.238Z,95.80
2022-09-20T22:13:34.457Z,95.90
2022-09-20T22:16:38.775Z,95.80
2022-09-20T22:19:40.422Z,95.90
2022-09-20T22:22:42.057Z,96.10
2022-09-20T22:25:43.883Z,96.00
2022-09-20T22:28:45.504Z,96.00
2022-09-20T22:31:48.817Z,96.20
2022-09-20T22:34:50.420Z,95.70
2022-09-20T22:37:51.984Z,95.90
2022-09-20T22:40:55.188Z,95.90
2022-09-20T22:43:56.814Z,95.90
2022-09-20T22:46:58.380Z,96.20
2022-09-20T22:49:59.936Z,96.30
2022-09-20T22:53:01.482Z,96.10
2022-09-20T22:56:15.895Z,95.90
2022-09-20T22:59:17.520Z,96.00
2022-09-20T23:02:19.106Z,96.10
2022-09-20T23:05:20.671Z,96.10
2022-09-20T23:08:24.273Z,96.10
2022-09-20T23:11:27.053Z,97.00
2022-09-20T23:14:28.659Z,96.20
2022-09-20T23:17:30.224Z,95.90
2022-09-20T23:20:32.025Z,96.00
2022-09-20T23:23:33.727Z,95.90
2022-09-20T23:26:36.956Z,96.00
2022-09-20T23:29:38.574Z,95.80
2022-09-20T23:32:40.491Z,96.00
2022-09-20T23:35:46.185Z,95.90
2022-09-20T23:38:48.374Z,96.20
2022-09-20T23:41:51.302Z,96.00
2022-09-20T23:44:53.217Z,96.40
2022-09-20T23:47:54.880Z,96.90
2022-09-20T23:50:56.711Z,96.40
2022-09-20T23:53:58.681Z,96.40
2022-09-20T23:57:00.280Z,96.80
